Airfield :
LOGIN :

Register | Disclaimer

   EN    FR    IT 

 










Legend :    VFR   Marginal VFR   IFR   Intensive IFR   Very Intensive IFR
Visi :
Ceiling :
>= 8 km
>= 3000ft
5 to 8 km
1000 to 3000 ft
1500m to 5 km
500 to 1000 ft
800 to 1500m
200 to 500 ft
< 800m
< 200 ft
Symbols :   Thunderstorms  Fog  Heavy snow  Heavy precipitations  Wind > 20 kt
SIGMETs :     Misc.  Thunderstorms  Icing  Turbulence  Mountain Waves  Volcanic Ashes






- Airport Elevation : 495 ft
- IATA code : BUD


LHBP - Budapest Ferihegy

CURRENT METAR :
  • 082230Z 11006KT 7000 NSC 00/M01 Q1009 NOSIG

EXPIRED METARs :
  • 082200Z 11006KT 7000 NSC 00/M01 Q1008 NOSIG
  • 082130Z 10007KT 7000 NSC 00/M01 Q1009 NOSIG
  • 082100Z 11008KT 7000 NSC 00/M01 Q1009 NOSIG
  • 082030Z 11008KT 7000 NSC 00/M01 Q1009 NOSIG
  • 082000Z 10007KT 8000 NSC 00/M01 Q1009 NOSIG

TAF TAF LHBP
Valid from the 08 at 18:00 until the 09 at 18:00 UTC


081715Z 0818/0918 09008KT CAVOK
TEMPO 0818/0903 4000 BR
BECMG 0902/0905 07014KT
BECMG 0908/0911 09008KT 5000 -RA BKN030
TEMPO 0912/0918 VRB03KT 1200 SN BKN004 OVC012



MET'MAP, your aeronautical weather chart ! - Copyright ORBIFLY December 2007 - Disclaimer

ORBIFLY MET'MAP TEAM :

Programming & Development : Alexandra Zaïnal
Concept & original design : Baudouin d'Aumeries
Assistance for programming : Marc-Olivier Méhu
Technical & hardware support : Manuel Goepfert

Contact : metmap@orbifly.com




SOURCES & CREDITS :

   NOAA